Time;durP1;ratioP1;P1;durP2;ratioP2;P2;SDS_P1;SDS_P2;PMS_P1;PMS_P2;Temp;Humidity;BMP_temperature;BMP_pressure;BME280_temperature;BME280_humidity;BME280_pressure;Samples;Min_cycle;Max_cycle;Signal;HPM_P1;HPM_P2
2023/10/24 00:01:11;;;;;;;1999.90;999.90;;;13.40;99.90;;;;;;5092408;28;20161;-67
2023/10/24 00:03:37;;;;;;;1999.90;999.90;;;13.40;99.90;;;;;;5094879;28;20609;-67
2023/10/24 00:06:03;;;;;;;1999.90;999.90;;;13.40;99.90;;;;;;5103451;28;20185;-66
2023/10/24 00:08:29;;;;;;;1999.90;999.90;;;13.40;99.90;;;;;;5112066;28;20179;-67
2023/10/24 00:11:00;;;;;;;1999.90;999.90;;;13.40;99.90;;;;;;5112447;28;21156;-67
2023/10/24 00:13:25;;;;;;;1999.90;999.90;;;13.50;99.90;;;;;;5112512;28;20500;-67
2023/10/24 00:16:06;;;;;;;1999.90;999.90;;;13.50;99.90;;;;;;5089300;28;20514;-67
2023/10/24 00:18:32;;;;;;;1999.90;999.90;;;13.50;99.90;;;;;;5098807;28;20419;-68
2023/10/24 00:20:58;;;;;;;1999.90;999.90;;;13.50;99.90;;;;;;5099074;28;20444;-67
2023/10/24 00:23:24;;;;;;;1999.90;999.90;;;13.50;99.90;;;;;;5109022;28;20195;-67
2023/10/24 00:25:50;;;;;;;1999.90;999.90;;;13.50;99.90;;;;;;5112579;28;20417;-67
2023/10/24 00:28:15;;;;;;;1999.90;999.90;;;13.50;99.90;;;;;;5112542;28;20636;-67
2023/10/24 00:30:41;;;;;;;1999.90;999.90;;;13.50;99.90;;;;;;5112262;28;20545;-67
2023/10/24 00:33:06;;;;;;;1999.90;999.90;;;13.50;99.90;;;;;;5106831;28;20207;-68
2023/10/24 00:35:33;;;;;;;1999.90;999.90;;;13.50;99.90;;;;;;5103970;28;20194;-67
2023/10/24 00:37:59;;;;;;;1999.90;999.90;;;13.50;99.90;;;;;;5111495;28;20182;-67
2023/10/24 00:40:25;;;;;;;1999.90;999.90;;;13.50;99.90;;;;;;5112117;28;20411;-68
2023/10/24 00:42:51;;;;;;;1999.90;999.90;;;13.40;99.90;;;;;;5107212;28;20290;-67
2023/10/24 00:45:17;;;;;;;1999.90;999.90;;;13.40;99.90;;;;;;5104016;28;20181;-66
2023/10/24 00:47:44;;;;;;;1999.90;999.90;;;13.30;99.90;;;;;;5102975;28;20932;-67
2023/10/24 00:50:10;;;;;;;1999.90;999.90;;;13.30;99.90;;;;;;5099858;28;20419;-67
2023/10/24 00:52:37;;;;;;;1999.90;999.90;;;13.20;99.90;;;;;;5116175;28;20467;-69
2023/10/24 00:55:05;;;;;;;1999.90;999.90;;;13.20;99.90;;;;;;5122465;28;20408;-67
2023/10/24 00:57:31;;;;;;;1999.90;999.90;;;13.20;99.90;;;;;;5123203;28;20831;-67
2023/10/24 00:59:57;;;;;;;1999.90;999.90;;;13.20;99.90;;;;;;5122582;28;20396;-69
2023/10/24 01:02:23;;;;;;;1999.90;999.90;;;13.20;99.90;;;;;;5120196;28;20240;-69
2023/10/24 01:04:52;;;;;;;1999.90;999.90;;;13.20;99.90;;;;;;5114236;28;20412;-68
2023/10/24 01:07:18;;;;;;;1999.90;999.90;;;13.20;99.90;;;;;;5120867;28;20401;-69
2023/10/24 01:09:44;;;;;;;1999.90;999.90;;;13.20;99.90;;;;;;5120893;28;20462;-69
2023/10/24 01:12:09;;;;;;;1999.90;999.90;;;13.30;99.90;;;;;;5116940;28;20190;-68
2023/10/24 01:14:35;;;;;;;1999.90;999.90;;;13.30;99.90;;;;;;5112079;28;20200;-69
2023/10/24 01:17:09;;;;;;;1999.90;999.90;;;13.30;99.90;;;;;;5118749;28;20167;-69
2023/10/24 01:19:34;;;;;;;1999.90;999.90;;;13.30;99.90;;;;;;5107205;28;20170;-68
2023/10/24 01:22:00;;;;;;;1999.90;999.90;;;13.40;99.90;;;;;;5107363;28;20431;-68
2023/10/24 01:24:26;;;;;;;1999.90;999.90;;;13.50;99.90;;;;;;5109601;28;20175;-68
2023/10/24 01:26:52;;;;;;;1999.90;999.90;;;13.50;99.90;;;;;;5121108;28;20552;-68
2023/10/24 01:29:18;;;;;;;1999.90;999.90;;;13.50;99.90;;;;;;5121138;28;20774;-68
2023/10/24 01:31:43;;;;;;;1999.90;999.90;;;13.70;99.90;;;;;;5119845;28;20469;-67
2023/10/24 01:34:09;;;;;;;1999.90;999.90;;;13.50;99.90;;;;;;5110214;28;20206;-69
2023/10/24 01:36:35;;;;;;;1999.90;999.90;;;13.50;99.90;;;;;;5120143;28;20236;-68
2023/10/24 01:39:00;;;;;;;1999.90;999.90;;;13.50;99.90;;;;;;5121804;28;20177;-68
2023/10/24 01:41:26;;;;;;;1999.90;999.90;;;13.50;99.90;;;;;;5121311;28;20186;-68
2023/10/24 01:43:52;;;;;;;1999.90;999.90;;;13.50;99.90;;;;;;5111297;28;20229;-69
2023/10/24 01:46:17;;;;;;;1999.90;999.90;;;13.50;99.90;;;;;;5119034;28;20176;-68
2023/10/24 01:48:43;;;;;;;1999.90;999.90;;;13.50;99.90;;;;;;5106391;28;20241;-68
2023/10/24 01:51:08;;;;;;;1999.90;999.90;;;13.50;99.90;;;;;;5116001;28;20184;-68
2023/10/24 01:53:34;;;;;;;1999.90;999.90;;;13.60;99.90;;;;;;5111568;28;20205;-67
2023/10/24 01:55:59;;;;;;;1999.90;999.90;;;13.60;99.90;;;;;;5118519;28;20168;-69
2023/10/24 01:58:25;;;;;;;1999.90;999.90;;;13.70;99.90;;;;;;5124486;28;20648;-69
2023/10/24 02:00:50;;;;;;;1999.90;999.90;;;13.70;99.90;;;;;;5122639;28;20180;-68
2023/10/24 02:03:16;;;;;;;1999.90;999.90;;;13.70;99.90;;;;;;5106174;28;20205;-67
2023/10/24 02:05:41;;;;;;;1999.90;999.90;;;13.70;99.90;;;;;;5112107;28;20263;-69
2023/10/24 02:08:07;;;;;;;1999.90;999.90;;;13.80;99.90;;;;;;5112448;28;20520;-69
2023/10/24 02:10:32;;;;;;;1999.90;999.90;;;13.90;99.90;;;;;;5123579;28;20195;-68
2023/10/24 02:12:58;;;;;;;1999.90;999.90;;;13.90;99.90;;;;;;5117119;28;20239;-67
2023/10/24 02:15:24;;;;;;;1999.90;999.90;;;14.00;99.90;;;;;;5116282;28;20232;-69
2023/10/24 02:17:49;;;;;;;1999.90;999.90;;;13.90;99.90;;;;;;5111214;28;20175;-69
2023/10/24 02:20:15;;;;;;;1999.90;999.90;;;13.90;99.90;;;;;;5107897;28;20280;-68
2023/10/24 02:22:40;;;;;;;1999.90;999.90;;;13.90;99.90;;;;;;5123131;28;20195;-68
2023/10/24 02:25:08;;;;;;;1999.90;999.90;;;14.00;99.90;;;;;;5122133;28;20184;-69
2023/10/24 02:27:35;;;;;;;1999.90;999.90;;;14.00;99.90;;;;;;5124856;28;20639;-69
2023/10/24 02:30:01;;;;;;;1999.90;999.90;;;14.00;99.90;;;;;;5124110;28;20414;-69
2023/10/24 02:32:27;;;;;;;1999.90;999.90;;;14.00;99.90;;;;;;5122549;28;20451;-67
2023/10/24 02:34:52;;;;;;;1999.90;999.90;;;14.00;99.90;;;;;;5109392;28;20450;-69
2023/10/24 02:37:18;;;;;;;1999.90;999.90;;;14.00;99.90;;;;;;5122514;28;20238;-68
2023/10/24 02:39:44;;;;;;;1999.90;999.90;;;14.00;99.90;;;;;;5125006;28;20170;-69
2023/10/24 02:42:09;;;;;;;1999.90;999.90;;;14.00;99.90;;;;;;5124590;28;20188;-69
2023/10/24 02:44:35;;;;;;;1999.90;999.90;;;14.00;99.90;;;;;;5125105;28;20437;-68
2023/10/24 02:47:01;;;;;;;1999.90;999.90;;;14.00;99.90;;;;;;5113169;28;20184;-67
2023/10/24 02:49:26;;;;;;;1999.90;999.90;;;14.00;99.90;;;;;;5115400;28;20175;-69
2023/10/24 02:51:52;;;;;;;1999.90;999.90;;;14.10;99.90;;;;;;5115686;28;20176;-69
2023/10/24 02:54:18;;;;;;;1999.90;999.90;;;14.00;99.90;;;;;;5110683;28;20185;-68
2023/10/24 02:56:43;;;;;;;1999.90;999.90;;;14.00;99.90;;;;;;5114671;28;20211;-67
2023/10/24 02:59:09;;;;;;;1999.90;999.90;;;14.00;99.90;;;;;;5115263;28;20552;-67
2023/10/24 03:01:35;;;;;;;1999.90;999.90;;;13.80;99.90;;;;;;5104843;28;20180;-66
2023/10/24 03:04:00;;;;;;;1999.90;999.90;;;13.60;99.90;;;;;;5104905;28;20209;-67
2023/10/24 03:06:26;;;;;;;1999.90;999.90;;;13.60;99.90;;;;;;5095942;28;20458;-67
2023/10/24 03:08:51;;;;;;;1999.90;999.90;;;13.50;99.90;;;;;;5101905;28;20184;-67
2023/10/24 03:11:24;;;;;;;1999.90;999.90;;;13.60;99.90;;;;;;5109785;28;20203;-68
2023/10/24 03:13:52;;;;;;;1999.90;999.90;;;13.60;99.90;;;;;;5113759;28;20209;-67
2023/10/24 03:16:18;;;;;;;1999.90;999.90;;;13.60;99.90;;;;;;5111233;28;20428;-67
2023/10/24 03:18:43;;;;;;;1999.90;999.90;;;13.60;99.90;;;;;;5104166;28;20430;-67
2023/10/24 03:21:09;;;;;;;1999.90;999.90;;;13.70;99.90;;;;;;5104916;28;20212;-67
2023/10/24 03:23:35;;;;;;;1999.90;999.90;;;13.70;99.90;;;;;;5105365;28;20204;-67
2023/10/24 03:26:04;;;;;;;1999.90;999.90;;;13.70;99.90;;;;;;5093231;28;20417;-67
2023/10/24 03:28:30;;;;;;;1999.90;999.90;;;13.80;99.90;;;;;;5093145;28;20542;-67
2023/10/24 03:31:07;;;;;;;1999.90;999.90;;;13.80;99.90;;;;;;5092840;28;20420;-68
2023/10/24 03:33:33;;;;;;;1999.90;999.90;;;13.70;99.90;;;;;;5099669;28;20296;-67
2023/10/24 03:36:00;;;;;;;1999.90;999.90;;;13.80;99.90;;;;;;5101449;28;20909;-67
2023/10/24 03:38:27;;;;;;;1999.90;999.90;;;13.80;99.90;;;;;;5110549;28;20427;-67
2023/10/24 03:40:53;;;;;;;1999.90;999.90;;;13.90;99.90;;;;;;5113227;28;20453;-67
2023/10/24 03:43:19;;;;;;;1999.90;999.90;;;13.90;99.90;;;;;;5104890;28;20469;-67
2023/10/24 03:45:45;;;;;;;1999.90;999.90;;;13.90;99.90;;;;;;5101260;28;20459;-67
2023/10/24 03:48:12;;;;;;;1999.90;999.90;;;13.70;99.90;;;;;;5092693;28;20416;-67
2023/10/24 03:50:39;;;;;;;1999.90;999.90;;;13.60;99.90;;;;;;5093274;28;20184;-67
2023/10/24 03:53:05;;;;;;;1999.90;999.90;;;13.50;99.90;;;;;;5094951;28;20468;-67
2023/10/24 03:55:31;;;;;;;1999.90;999.90;;;13.50;99.90;;;;;;5101159;28;20790;-67
2023/10/24 03:57:57;;;;;;;1999.90;999.90;;;13.60;99.90;;;;;;5092617;28;20396;-67
2023/10/24 04:00:23;;;;;;;1999.90;999.90;;;13.60;99.90;;;;;;5092385;28;20787;-67
2023/10/24 04:02:53;;;;;;;1999.90;999.90;;;13.60;99.90;;;;;;5096195;28;20193;-67
2023/10/24 04:05:18;;;;;;;1999.90;999.90;;;13.60;99.90;;;;;;5103565;28;20434;-67
2023/10/24 04:07:44;;;;;;;1999.90;999.90;;;13.60;99.90;;;;;;5111112;28;20408;-68
2023/10/24 04:10:14;;;;;;;1999.90;999.90;;;13.60;99.90;;;;;;5100503;28;20185;-67
2023/10/24 04:12:40;;;;;;;1999.90;999.90;;;13.70;99.90;;;;;;5092380;28;20325;-67
2023/10/24 04:15:06;;;;;;;1999.90;999.90;;;13.70;99.90;;;;;;5092283;28;20947;-67
2023/10/24 04:17:32;;;;;;;1999.90;999.90;;;13.60;99.90;;;;;;5101854;28;20300;-67
2023/10/24 04:19:58;;;;;;;1999.90;999.90;;;13.60;99.90;;;;;;5105213;28;20423;-66
2023/10/24 04:22:24;;;;;;;1999.90;999.90;;;13.50;99.90;;;;;;5095647;28;20436;-67
2023/10/24 04:24:49;;;;;;;1999.90;999.90;;;13.50;99.90;;;;;;5104117;28;20183;-67
2023/10/24 04:27:15;;;;;;;1999.90;999.90;;;13.50;99.90;;;;;;5112457;28;20177;-67
2023/10/24 04:29:42;;;;;;;1999.90;999.90;;;13.50;99.90;;;;;;5112251;28;20179;-68
2023/10/24 04:32:07;;;;;;;1999.90;999.90;;;13.50;99.90;;;;;;5108546;28;20227;-67
2023/10/24 04:34:33;;;;;;;1999.90;999.90;;;13.50;99.90;;;;;;5100936;28;20488;-67
2023/10/24 04:37:01;;;;;;;1999.90;999.90;;;13.40;99.90;;;;;;5107279;28;20178;-69
2023/10/24 04:39:27;;;;;;;1999.90;999.90;;;13.40;99.90;;;;;;5100802;28;20657;-67
2023/10/24 04:41:53;;;;;;;1999.90;999.90;;;13.30;99.90;;;;;;5099439;28;20414;-67
2023/10/24 04:44:19;;;;;;;1999.90;999.90;;;13.50;99.90;;;;;;5091974;28;20835;-67
2023/10/24 04:46:45;;;;;;;1999.90;999.90;;;13.40;99.90;;;;;;5091889;28;20406;-67
2023/10/24 04:49:11;;;;;;;1999.90;999.90;;;13.40;99.90;;;;;;5091297;28;20727;-68
2023/10/24 04:51:36;;;;;;;1999.90;999.90;;;13.40;99.90;;;;;;5101902;28;20440;-67
2023/10/24 04:54:02;;;;;;;1999.90;999.90;;;13.40;99.90;;;;;;5092062;28;20463;-68
2023/10/24 04:56:28;;;;;;;1999.90;999.90;;;13.40;99.90;;;;;;5109359;28;20176;-67
2023/10/24 04:58:56;;;;;;;1999.90;999.90;;;13.40;99.90;;;;;;5112144;28;20163;-67
2023/10/24 05:01:21;;;;;;;1999.90;999.90;;;13.40;99.90;;;;;;5111886;28;20179;-67
2023/10/24 05:03:47;;;;;;;1999.90;999.90;;;13.40;99.90;;;;;;5112064;28;20939;-68
2023/10/24 05:06:13;;;;;;;1999.90;999.90;;;13.30;99.90;;;;;;5101525;28;20207;-67
2023/10/24 05:08:39;;;;;;;1999.90;999.90;;;13.30;99.90;;;;;;5108472;28;20239;-67
2023/10/24 05:11:04;;;;;;;1999.90;999.90;;;13.30;99.90;;;;;;5103299;28;20187;-67
2023/10/24 05:13:30;;;;;;;1999.90;999.90;;;13.30;99.90;;;;;;5110971;28;20824;-67
2023/10/24 05:15:57;;;;;;;1999.90;999.90;;;13.30;99.90;;;;;;5099281;28;20610;-67
2023/10/24 05:18:22;;;;;;;1999.90;999.90;;;13.30;99.90;;;;;;5091542;28;20175;-68
2023/10/24 05:20:48;;;;;;;1999.90;999.90;;;13.30;99.90;;;;;;5098963;28;20445;-68
2023/10/24 05:23:14;;;;;;;1999.90;999.90;;;13.30;99.90;;;;;;5101745;28;20200;-68
2023/10/24 05:25:41;;;;;;;1999.90;999.90;;;13.30;99.90;;;;;;5107575;28;20182;-68
2023/10/24 05:28:07;;;;;;;1999.90;999.90;;;13.30;99.90;;;;;;5115843;28;20662;-69
2023/10/24 05:30:32;;;;;;;1999.90;999.90;;;13.30;99.90;;;;;;5115541;28;20415;-69
2023/10/24 05:32:58;;;;;;;1999.90;999.90;;;13.30;99.90;;;;;;5109716;28;20606;-68
2023/10/24 05:35:24;;;;;;;1999.90;999.90;;;13.40;99.90;;;;;;5100066;28;20185;-68
2023/10/24 05:37:50;;;;;;;1999.90;999.90;;;13.30;99.90;;;;;;5111831;28;20252;-68
2023/10/24 05:40:16;;;;;;;1999.90;999.90;;;13.30;99.90;;;;;;5117498;28;20448;-68
2023/10/24 05:42:41;;;;;;;1999.90;999.90;;;13.30;99.90;;;;;;5112037;28;20327;-69
2023/10/24 05:45:08;;;;;;;1999.90;999.90;;;13.30;99.90;;;;;;5120046;28;20235;-69
2023/10/24 05:47:33;;;;;;;1999.90;999.90;;;13.30;99.90;;;;;;5119238;28;20168;-69
2023/10/24 05:49:59;;;;;;;1999.90;999.90;;;13.30;99.90;;;;;;5119285;28;20402;-69
2023/10/24 05:52:25;;;;;;;1999.90;999.90;;;13.40;99.90;;;;;;5109437;28;20206;-68
2023/10/24 05:54:52;;;;;;;1999.90;999.90;;;13.40;99.90;;;;;;5110942;28;20203;-68
2023/10/24 05:57:18;;;;;;;1999.90;999.90;;;13.40;99.90;;;;;;5119645;28;20169;-67
2023/10/24 05:59:43;;;;;;;1999.90;999.90;;;13.40;99.90;;;;;;5118781;28;20905;-68
2023/10/24 06:02:09;;;;;;;1999.90;999.90;;;13.40;99.90;;;;;;5118042;28;20179;-68
2023/10/24 06:04:35;;;;;;;1999.90;999.90;;;13.50;99.90;;;;;;5117692;28;20198;-68
2023/10/24 06:07:01;;;;;;;1999.90;999.90;;;13.40;99.90;;;;;;5116285;28;20174;-68
2023/10/24 06:09:27;;;;;;;1999.90;999.90;;;13.40;99.90;;;;;;5104292;28;20441;-68
2023/10/24 06:11:52;;;;;;;1999.90;999.90;;;13.20;99.90;;;;;;5101481;28;20400;-68
2023/10/24 06:14:18;;;;;;;1999.90;999.90;;;13.40;99.90;;;;;;5117745;28;20253;-69
2023/10/24 06:16:43;;;;;;;1999.90;999.90;;;13.50;99.90;;;;;;5118095;28;20640;-69
2023/10/24 06:19:09;;;;;;;1999.90;999.90;;;13.40;99.90;;;;;;5118116;28;20171;-69
2023/10/24 06:21:35;;;;;;;1999.90;999.90;;;13.40;99.90;;;;;;5111376;28;20178;-68
2023/10/24 06:24:00;;;;;;;1999.90;999.90;;;13.50;99.90;;;;;;5105250;28;20203;-70
2023/10/24 06:26:26;;;;;;;1999.90;999.90;;;13.50;99.90;;;;;;5115116;28;20204;-69
2023/10/24 06:28:52;;;;;;;1999.90;999.90;;;13.40;99.90;;;;;;5117350;28;20196;-69
2023/10/24 06:31:17;;;;;;;1999.90;999.90;;;13.40;99.90;;;;;;5114538;28;20226;-68
2023/10/24 06:33:43;;;;;;;1999.90;999.90;;;13.40;99.90;;;;;;5114356;28;20649;-68
2023/10/24 06:36:09;;;;;;;1999.90;999.90;;;13.40;99.90;;;;;;5113559;28;20463;-68
2023/10/24 06:38:35;;;;;;;1999.90;999.90;;;13.40;99.90;;;;;;5103647;28;20208;-68
2023/10/24 06:41:01;;;;;;;1999.90;999.90;;;13.40;99.90;;;;;;5105801;28;21044;-68
2023/10/24 06:43:27;;;;;;;1999.90;999.90;;;13.40;99.90;;;;;;5114216;28;20274;-66
2023/10/24 06:45:53;;;;;;;1999.90;999.90;;;13.40;99.90;;;;;;5114642;28;20443;-67
2023/10/24 06:48:19;;;;;;;1999.90;999.90;;;13.40;99.90;;;;;;5114433;28;20418;-68
2023/10/24 06:50:45;;;;;;;1999.90;999.90;;;13.30;99.90;;;;;;5114135;28;20404;-66
2023/10/24 06:53:11;;;;;;;1999.90;999.90;;;13.30;99.90;;;;;;5101193;28;20197;-67
2023/10/24 06:55:37;;;;;;;1999.90;999.90;;;13.30;99.90;;;;;;5108261;28;20453;-67
2023/10/24 06:58:03;;;;;;;1999.90;999.90;;;13.30;99.90;;;;;;5093697;28;20407;-67
2023/10/24 07:00:29;;;;;;;1999.90;999.90;;;13.30;99.90;;;;;;5093484;28;20406;-68
2023/10/24 07:02:55;;;;;;;1999.90;999.90;;;13.30;99.90;;;;;;5093758;28;20418;-67
2023/10/24 07:05:21;;;;;;;1999.90;999.90;;;13.30;99.90;;;;;;5100852;28;20183;-66
2023/10/24 07:07:47;;;;;;;1999.90;999.90;;;13.30;99.90;;;;;;5103834;28;20259;-67
2023/10/24 07:10:12;;;;;;;1999.90;999.90;;;13.30;99.90;;;;;;5098207;28;20430;-67
2023/10/24 07:12:38;;;;;;;1999.90;999.90;;;13.30;99.90;;;;;;5113669;28;20434;-67
2023/10/24 07:15:04;;;;;;;1999.90;999.90;;;13.40;99.90;;;;;;5114063;28;20772;-67
2023/10/24 07:17:30;;;;;;;1999.90;999.90;;;13.40;99.90;;;;;;5113809;28;20164;-67
2023/10/24 07:19:59;;;;;;;1999.90;999.90;;;13.50;99.90;;;;;;5112867;28;20959;-66
2023/10/24 07:22:28;;;;;;;1999.90;999.90;;;13.60;99.90;;;;;;5101523;28;20438;-67
2023/10/24 07:24:54;;;;;;;1999.90;999.90;;;13.60;99.90;;;;;;5095871;28;20431;-67
2023/10/24 07:27:21;;;;;;;1999.90;999.90;;;13.70;99.90;;;;;;5101484;28;20903;-67
2023/10/24 07:29:47;;;;;;;1999.90;999.90;;;13.70;99.90;;;;;;5112033;28;20410;-67
2023/10/24 07:32:13;;;;;;;1999.90;999.90;;;13.70;99.90;;;;;;5096331;28;20445;-67
2023/10/24 07:34:41;;;;;;;1999.90;999.90;;;13.70;99.90;;;;;;5102448;28;20501;-67
2023/10/24 07:37:07;;;;;;;1999.90;999.90;;;13.70;99.90;;;;;;5104811;28;20922;-67
2023/10/24 07:39:33;;;;;;;1999.90;999.90;;;13.70;99.90;;;;;;5107271;28;20946;-66
2023/10/24 07:41:59;;;;;;;1999.90;999.90;;;13.70;99.90;;;;;;5096604;28;20444;-67
2023/10/24 07:44:24;;;;;;;1999.90;999.90;;;13.80;99.90;;;;;;5104677;28;20404;-66
2023/10/24 07:46:50;;;;;;;1999.90;999.90;;;13.80;99.90;;;;;;5112927;28;20179;-68
2023/10/24 07:49:15;;;;;;;1999.90;999.90;;;13.90;99.90;;;;;;5113289;28;20175;-67
2023/10/24 07:51:41;;;;;;;1999.90;999.90;;;13.70;99.90;;;;;;5112465;28;20678;-69
2023/10/24 07:54:07;;;;;;;1999.90;999.90;;;13.90;99.90;;;;;;5103806;28;20203;-68
2023/10/24 07:56:32;;;;;;;1999.90;999.90;;;14.00;99.90;;;;;;5104563;28;20194;-68
2023/10/24 07:58:58;;;;;;;1999.90;999.90;;;14.00;99.90;;;;;;5113013;28;20162;-69
2023/10/24 08:01:23;;;;;;;1999.90;999.90;;;14.00;99.90;;;;;;5112840;28;20180;-68
2023/10/24 08:03:49;;;;;;;1999.90;999.90;;;14.00;99.90;;;;;;5112838;28;20276;-68
2023/10/24 08:06:15;;;;;;;1999.90;999.90;;;14.00;99.90;;;;;;5108995;28;20178;-68
2023/10/24 08:08:42;;;;;;;1999.90;999.90;;;13.90;99.90;;;;;;5088402;28;20636;-69
2023/10/24 08:11:08;;;;;;;1999.90;999.90;;;13.90;99.90;;;;;;5090805;28;20611;-69
2023/10/24 08:13:34;;;;;;;1999.90;999.90;;;13.90;99.90;;;;;;5094406;28;21167;-69
2023/10/24 08:16:00;;;;;;;1999.90;999.90;;;14.00;99.90;;;;;;5096161;28;20432;-69
2023/10/24 08:18:25;;;;;;;1999.90;999.90;;;14.00;99.90;;;;;;5099300;28;20268;-69
2023/10/24 08:20:51;;;;;;;1999.90;999.90;;;14.10;99.90;;;;;;5098955;28;20181;-68
2023/10/24 08:23:16;;;;;;;1999.90;999.90;;;14.20;99.90;;;;;;5107625;28;20186;-68
2023/10/24 08:25:42;;;;;;;1999.90;999.90;;;14.20;99.90;;;;;;5096334;28;20199;-67
2023/10/24 08:28:08;;;;;;;1999.90;999.90;;;14.20;99.90;;;;;;5094726;28;20297;-69
2023/10/24 08:30:34;;;;;;;1999.90;999.90;;;14.20;99.90;;;;;;5094770;28;20181;-68
2023/10/24 08:33:00;;;;;;;1999.90;999.90;;;14.20;99.90;;;;;;5079382;28;20683;-69
2023/10/24 08:35:26;;;;;;;1999.90;999.90;;;14.30;99.90;;;;;;5083802;28;20440;-69
2023/10/24 08:37:51;;;;;;;1999.90;999.90;;;14.40;99.90;;;;;;5081000;28;20428;-68
2023/10/24 08:40:20;;;;;;;1999.90;999.90;;;14.40;99.90;;;;;;5090315;28;20177;-69
2023/10/24 08:42:46;;;;;;;1999.90;999.90;;;14.50;99.90;;;;;;5091063;28;20218;-67
2023/10/24 08:45:16;;;;;;;1999.90;999.90;;;14.50;99.90;;;;;;5085929;28;20977;-67
2023/10/24 08:47:43;;;;;;;1999.90;999.90;;;14.60;99.90;;;;;;5086903;28;20170;-67
2023/10/24 08:50:09;;;;;;;1999.90;999.90;;;14.60;99.90;;;;;;5090452;28;20416;-67
2023/10/24 08:52:35;;;;;;;1999.90;999.90;;;14.60;99.90;;;;;;5091158;28;20437;-68
2023/10/24 08:55:05;;;;;;;1999.90;999.90;;;14.50;99.90;;;;;;5083218;28;20492;-67
2023/10/24 08:57:39;;;;;;;1999.90;999.90;;;14.60;99.90;;;;;;5091390;28;20418;-68
2023/10/24 09:00:08;;;;;;;1999.90;999.90;;;14.60;99.90;;;;;;5087538;28;20511;-69
2023/10/24 09:02:35;;;;;;;1999.90;999.90;;;14.60;99.90;;;;;;5092969;28;20793;-68
2023/10/24 09:05:01;;;;;;;1999.90;999.90;;;14.70;99.90;;;;;;5095704;28;20488;-69
2023/10/24 09:07:27;;;;;;;1999.90;999.90;;;14.70;99.90;;;;;;5095596;28;20497;-69
2023/10/24 09:09:53;;;;;;;1999.90;999.90;;;14.70;99.90;;;;;;5095401;28;20426;-69
2023/10/24 09:12:20;;;;;;;1999.90;999.90;;;14.70;99.90;;;;;;5095778;28;20473;-68
2023/10/24 09:14:48;;;;;;;1999.90;999.90;;;14.70;99.90;;;;;;5095173;28;20289;-68
2023/10/24 09:17:17;;;;;;;1999.90;999.90;;;14.70;99.90;;;;;;5095062;28;20416;-70
2023/10/24 09:19:43;;;;;;;1999.90;999.90;;;14.70;99.90;;;;;;5092780;28;20401;-68
2023/10/24 09:22:09;;;;;;;1999.90;999.90;;;14.60;99.90;;;;;;5095017;28;20422;-68
2023/10/24 09:24:35;;;;;;;1999.90;999.90;;;14.70;99.90;;;;;;5095054;28;20411;-68
2023/10/24 09:27:01;;;;;;;1999.90;999.90;;;14.60;99.90;;;;;;5095014;28;20486;-68
2023/10/24 09:29:27;;;;;;;1999.90;999.90;;;14.60;99.90;;;;;;5094762;28;20184;-68
2023/10/24 09:31:54;;;;;;;1999.90;999.90;;;14.60;99.90;;;;;;5092475;28;20408;-67
2023/10/24 09:34:20;;;;;;;1999.90;999.90;;;14.60;99.90;;;;;;5090379;28;20460;-67
2023/10/24 09:36:48;;;;;;;1999.90;999.90;;;14.70;99.90;;;;;;5089564;28;20411;-68
2023/10/24 09:39:14;;;;;;;1999.90;999.90;;;14.90;99.90;;;;;;5094842;28;20433;-67
2023/10/24 09:41:42;;;;;;;1999.90;999.90;;;15.10;99.90;;;;;;5083812;28;20436;-67
2023/10/24 09:44:08;;;;;;;1999.90;999.90;;;15.10;99.90;;;;;;5094557;28;20413;-68
2023/10/24 09:46:35;;;;;;;1999.90;999.90;;;15.20;99.90;;;;;;5093296;28;20415;-68
2023/10/24 09:49:02;;;;;;;1999.90;999.90;;;15.30;99.90;;;;;;5094551;28;20412;-70
2023/10/24 09:51:28;;;;;;;1999.90;999.90;;;15.40;99.90;;;;;;5094418;28;20416;-69
2023/10/24 09:53:54;;;;;;;1999.90;999.90;;;15.40;99.90;;;;;;5093177;28;20462;-68
2023/10/24 09:56:21;;;;;;;1999.90;999.90;;;15.50;99.90;;;;;;5094540;28;20470;-68
2023/10/24 09:58:46;;;;;;;1999.90;999.90;;;15.60;99.90;;;;;;5094318;28;20415;-67
2023/10/24 10:01:12;;;;;;;1999.90;999.90;;;15.80;99.90;;;;;;5094183;28;20416;-67
2023/10/24 10:03:38;;;;;;;1999.90;999.90;;;15.90;99.90;;;;;;5094472;28;20306;-67
2023/10/24 10:06:09;;;;;;;1999.90;999.90;;;16.00;99.90;;;;;;5094407;28;20272;-68
2023/10/24 10:08:40;;;;;;;1999.90;999.90;;;16.00;99.90;;;;;;5094056;28;20448;-68
2023/10/24 10:11:07;;;;;;;1999.90;999.90;;;16.00;99.90;;;;;;5094162;28;20432;-68
2023/10/24 10:14:02;;;;;;;1999.90;999.90;;;16.10;99.90;;;;;;5094049;28;20463;-67
2023/10/24 10:16:40;;;;;;;1999.90;999.90;;;16.10;99.90;;;;;;5091078;28;20476;-67
2023/10/24 10:19:23;;;;;;;1999.90;999.90;;;16.10;99.90;;;;;;5094436;28;20792;-67
2023/10/24 10:22:16;;;;;;;1999.90;999.90;;;15.90;99.90;;;;;;5095114;28;20482;-67
2023/10/24 10:25:19;;;;;;;1999.90;999.90;;;16.20;99.90;;;;;;5097124;28;20906;-68
2023/10/24 10:28:04;;;;;;;1999.90;999.90;;;16.20;99.90;;;;;;5093912;28;20409;-67
2023/10/24 10:30:56;;;;;;;1999.90;999.90;;;16.10;99.90;;;;;;5093700;28;20407;-68
2023/10/24 10:33:23;;;;;;;1999.90;999.90;;;16.10;99.90;;;;;;5069634;28;20559;-68
2023/10/24 10:36:09;;;;;;;1999.90;999.90;;;16.00;99.90;;;;;;5093773;28;20414;-68
2023/10/24 10:38:47;;;;;;;1999.90;999.90;;;16.00;99.90;;;;;;5093602;28;20899;-67
2023/10/24 10:41:21;;;;;;;1999.90;999.90;;;15.90;99.90;;;;;;5093490;28;20490;-67
2023/10/24 10:43:47;;;;;;;1999.90;999.90;;;15.90;99.90;;;;;;5093583;28;20418;-68
2023/10/24 10:46:18;;;;;;;1999.90;999.90;;;16.00;99.90;;;;;;5093625;28;20409;-67
2023/10/24 10:48:44;;;;;;;1999.90;999.90;;;15.90;99.90;;;;;;5093522;28;20412;-67
2023/10/24 10:51:23;;;;;;;1999.90;999.90;;;15.80;99.90;;;;;;5093037;28;20549;-67
2023/10/24 10:54:30;;;;;;;1999.90;999.90;;;15.80;99.90;;;;;;5093348;28;20463;-68
2023/10/24 10:57:01;;;;;;;1999.90;999.90;;;15.70;99.90;;;;;;5072081;28;20847;-67
2023/10/24 10:59:45;;;;;;;1999.90;999.90;;;15.60;99.90;;;;;;5093568;28;20467;-67
2023/10/24 11:02:48;;;;;;;1999.90;999.90;;;15.50;99.90;;;;;;5085773;28;20427;-68
2023/10/24 11:05:43;;;;;;;1999.90;999.90;;;15.50;99.90;;;;;;5093379;28;20404;-68
2023/10/24 11:08:13;;;;;;;1999.90;999.90;;;15.50;99.90;;;;;;5079556;28;20768;-67
2023/10/24 11:11:00;;;;;;;1999.90;999.90;;;15.30;99.90;;;;;;5093017;28;20423;-67
2023/10/24 11:13:38;;;;;;;1999.90;999.90;;;15.30;99.90;;;;;;5092790;28;20466;-68
2023/10/24 11:16:09;;;;;;;1999.90;999.90;;;15.30;99.90;;;;;;5093226;28;20408;-68
2023/10/24 11:18:35;;;;;;;1999.90;999.90;;;15.20;99.90;;;;;;5093113;28;20407;-67
2023/10/24 11:21:04;;;;;;;1999.90;999.90;;;15.10;99.90;;;;;;5092273;28;21276;-67
2023/10/24 11:23:31;;;;;;;1999.90;999.90;;;15.00;99.90;;;;;;5092916;28;20441;-68
2023/10/24 11:25:58;;;;;;;1999.90;999.90;;;15.00;99.90;;;;;;5092910;28;20440;-67
2023/10/24 11:28:27;;;;;;;1999.90;999.90;;;14.80;99.90;;;;;;5093031;28;20422;-68
2023/10/24 11:30:56;;;;;;;1999.90;999.90;;;14.60;99.90;;;;;;5092928;28;20447;-67
2023/10/24 11:33:23;;;;;;;1999.90;999.90;;;14.50;99.90;;;;;;5093209;28;20466;-68
2023/10/24 11:35:49;;;;;;;1999.90;999.90;;;14.40;99.90;;;;;;5093229;28;21160;-68
2023/10/24 11:38:15;;;;;;;1999.90;999.90;;;14.30;99.90;;;;;;5093203;28;20412;-67
2023/10/24 11:40:41;;;;;;;1999.90;999.90;;;14.20;99.90;;;;;;5092376;28;20414;-68
2023/10/24 11:43:08;;;;;;;1999.90;999.90;;;14.10;99.90;;;;;;5092342;28;20429;-68
2023/10/24 11:45:37;;;;;;;1999.90;999.90;;;14.00;99.90;;;;;;5092529;28;20411;-67
2023/10/24 11:48:03;;;;;;;1999.90;999.90;;;13.90;99.90;;;;;;5092499;28;20938;-67
2023/10/24 11:50:49;;;;;;;1999.90;999.90;;;13.90;99.90;;;;;;5092485;28;20423;-68
2023/10/24 11:53:22;;;;;;;1999.90;999.90;;;13.70;99.90;;;;;;5092214;28;20528;-68
2023/10/24 11:55:48;;;;;;;1999.90;999.90;;;13.60;99.90;;;;;;5092001;28;20413;-68
2023/10/24 11:58:14;;;;;;;1999.90;999.90;;;13.50;99.90;;;;;;5092343;28;20408;-68
2023/10/24 12:00:42;;;;;;;1999.90;999.90;;;13.30;99.90;;;;;;5092223;28;20418;-67